Time;durP1;ratioP1;P1;durP2;ratioP2;P2;SDS_P1;SDS_P2;PMS_P1;PMS_P2;Temp;Humidity;BMP_temperature;BMP_pressure;BME280_temperature;BME280_humidity;BME280_pressure;Samples;Min_cycle;Max_cycle;Signal;HPM_P1;HPM_P2
2022/10/27 00:01:17;;;;;;;10.90;5.10;;;;;;;-141.28;100.00;49604.06;5124175;27;20195;-79
2022/10/27 00:03:44;;;;;;;19.43;5.93;;;;;;;-141.28;100.00;49611.91;5135184;27;20218;-78
2022/10/27 00:06:11;;;;;;;20.27;5.87;;;;;;;-141.28;100.00;49607.97;5135468;27;20198;-75
2022/10/27 00:08:38;;;;;;;12.27;5.10;;;;;;;-141.28;100.00;49580.50;5134955;27;20225;-75
2022/10/27 00:11:07;;;;;;;10.90;4.87;;;;;;;-141.28;100.00;49588.34;5135424;27;20209;-77
2022/10/27 00:13:35;;;;;;;11.97;5.40;;;;;;;-141.28;100.00;49588.34;5133904;27;20349;-75
2022/10/27 00:16:04;;;;;;;23.77;6.73;;;;;;;-141.28;100.00;49584.44;5134814;27;20202;-79
2022/10/27 00:18:31;;;;;;;12.23;5.27;;;;;;;-141.28;100.00;49545.19;5135088;27;20237;-77
2022/10/27 00:21:00;;;;;;;8.80;4.57;;;;;;;-141.28;100.00;49521.63;5135170;27;20198;-78
2022/10/27 00:23:27;;;;;;;14.07;5.00;;;;;;;-141.28;100.00;49517.72;5134996;27;20216;-77
2022/10/27 00:25:54;;;;;;;8.20;4.63;;;;;;;-141.28;100.00;49454.94;5134971;27;20206;-76
2022/10/27 00:28:22;;;;;;;12.63;5.03;;;;;;;-141.28;100.00;49470.63;5135113;27;20671;-76
2022/10/27 00:30:57;;;;;;;12.03;4.40;;;;;;;-141.28;100.00;49490.25;5134861;27;20205;-80
2022/10/27 00:33:24;;;;;;;9.13;5.47;;;;;;;-141.28;100.00;49451.00;5134488;27;20198;-78
2022/10/27 00:35:51;;;;;;;9.00;4.80;;;;;;;-141.28;100.00;49427.44;5136901;27;20194;-76
2022/10/27 00:38:18;;;;;;;13.53;5.10;;;;;;;-141.28;100.00;49470.63;5134925;27;20198;-76
2022/10/27 00:40:45;;;;;;;9.90;4.50;;;;;;;-141.28;100.00;49431.38;5134845;27;20198;-75
2022/10/27 00:43:28;;;;;;;8.60;4.90;;;;;;;-141.28;100.00;49462.78;5134266;27;20202;-80
2022/10/27 00:45:57;;;;;;;7.57;4.87;;;;;;;-141.28;100.00;49454.94;5134476;27;20221;-76
2022/10/27 00:48:25;;;;;;;11.33;4.30;;;;;;;-141.28;100.00;49439.22;5134336;27;20228;-76
2022/10/27 00:50:53;;;;;;;9.73;4.87;;;;;;;-141.28;100.00;49427.44;5134238;27;20271;-79
2022/10/27 00:53:20;;;;;;;8.37;4.87;;;;;;;-141.28;100.00;49423.53;5134440;27;20665;-77
2022/10/27 00:55:47;;;;;;;7.57;4.73;;;;;;;-141.28;100.00;49407.84;5133962;27;20194;-78
2022/10/27 00:58:17;;;;;;;12.03;4.70;;;;;;;-141.28;100.00;49439.22;5134244;27;20194;-77
2022/10/27 01:00:45;;;;;;;10.13;4.80;;;;;;;-141.28;100.00;49399.97;5138606;27;20190;-73
2022/10/27 01:03:16;;;;;;;11.47;5.60;;;;;;;-141.28;100.00;49392.13;5144039;27;20226;-74
2022/10/27 01:05:44;;;;;;;10.73;5.33;;;;;;;-141.28;100.00;49392.13;5142609;27;20198;-74
2022/10/27 01:08:12;;;;;;;11.37;5.17;;;;;;;-141.28;100.00;49366.63;5139678;27;20226;-77
2022/10/27 01:10:39;;;;;;;11.80;5.10;;;;;;;-141.28;100.00;49396.06;5134198;27;20214;-77
2022/10/27 01:13:06;;;;;;;10.00;5.10;;;;;;;-141.28;100.00;49423.53;5134852;27;20234;-80
2022/10/27 01:15:42;;;;;;;8.00;5.57;;;;;;;-141.28;100.00;49411.75;5134256;27;20653;-75
2022/10/27 01:18:21;;;;;;;17.87;5.20;;;;;;;-141.28;100.00;49445.13;5133844;27;20202;-78
2022/10/27 01:21:23;;;;;;;10.43;5.37;;;;;;;-141.28;100.00;49498.09;5133248;27;20251;-78
2022/10/27 01:24:23;;;;;;;8.60;5.10;;;;;;;-141.28;100.00;49631.53;5133606;27;20202;-76
2022/10/27 01:26:51;;;;;;;13.63;5.60;;;;;;;-141.28;100.00;49611.91;5133776;27;20209;-76
2022/10/27 01:29:39;;;;;;;13.17;5.50;;;;;;;-141.28;100.00;49600.13;5133619;27;20222;-79
2022/10/27 01:32:20;;;;;;;14.63;5.87;;;;;;;-141.28;100.00;49631.53;5133289;27;20213;-77
2022/10/27 01:34:52;;;;;;;8.13;5.00;;;;;;;-141.28;100.00;49611.91;5120811;27;20250;-77
2022/10/27 01:37:22;;;;;;;9.57;4.93;;;;;;;-141.28;100.00;49553.03;5133525;27;20263;-78
2022/10/27 01:39:56;;;;;;;10.60;4.30;;;;;;;-141.28;100.00;49502.03;5133251;27;20198;-76
2022/10/27 01:42:28;;;;;;;6.70;3.73;;;;;;;-141.28;100.00;49611.91;5133442;27;20251;-76
2022/10/27 01:44:58;;;;;;;11.83;4.97;;;;;;;-141.28;100.00;49594.25;5133586;27;20198;-75
2022/10/27 01:47:28;;;;;;;8.00;3.30;;;;;;;-141.28;100.00;49625.66;5133003;27;20209;-78
2022/10/27 01:49:55;;;;;;;6.23;3.00;;;;;;;-141.28;100.00;49517.72;5133190;27;20237;-75
2022/10/27 01:52:43;;;;;;;6.10;3.17;;;;;;;-141.28;100.00;49600.13;5136341;27;20202;-79
2022/10/27 01:55:15;;;;;;;8.77;3.30;;;;;;;-141.28;100.00;49555.00;5133190;27;20768;-75
2022/10/27 01:58:14;;;;;;;8.03;3.17;;;;;;;-141.28;100.00;49621.72;5132721;27;20202;-78
2022/10/27 02:00:54;;;;;;;5.17;3.10;;;;;;;-141.28;100.00;49600.13;5115690;27;20190;-77
2022/10/27 02:03:28;;;;;;;7.63;3.23;;;;;;;-141.28;100.00;49570.69;5133053;27;20214;-80
2022/10/27 02:06:04;;;;;;;6.13;3.00;;;;;;;-141.28;100.00;49568.75;5132557;27;20195;-80
2022/10/27 02:08:39;;;;;;;3.83;2.90;;;;;;;-141.28;100.00;49556.97;5132878;27;20696;-77
2022/10/27 02:11:10;;;;;;;6.77;3.00;;;;;;;-141.28;100.00;49555.00;5133639;27;20767;-77
2022/10/27 02:13:40;;;;;;;8.10;2.87;;;;;;;-141.28;100.00;49502.03;5133039;27;20232;-76
2022/10/27 02:16:11;;;;;;;7.87;2.70;;;;;;;-141.28;100.00;49478.47;5132650;27;20202;-77
2022/10/27 02:18:45;;;;;;;6.40;2.80;;;;;;;-141.28;100.00;49458.84;5132451;27;20645;-76
2022/10/27 02:21:15;;;;;;;6.47;2.80;;;;;;;-141.28;100.00;49447.06;5135916;27;20223;-75
2022/10/27 02:23:42;;;;;;;7.23;3.07;;;;;;;-141.28;100.00;49425.50;5149902;27;20255;-75
2022/10/27 02:26:18;;;;;;;8.37;3.03;;;;;;;-141.28;100.00;49452.97;5153399;27;20202;-76
2022/10/27 02:28:50;;;;;;;10.07;3.40;;;;;;;-141.28;100.00;49427.44;5138984;27;20635;-75
2022/10/27 02:31:20;;;;;;;7.83;3.10;;;;;;;-141.28;100.00;49411.75;5146366;27;20198;-75
2022/10/27 02:33:49;;;;;;;4.67;3.17;;;;;;;-141.28;100.00;49423.53;5134849;27;20207;-79
2022/10/27 02:36:17;;;;;;;9.97;3.90;;;;;;;-141.28;100.00;49380.34;5133372;27;20202;-78
2022/10/27 02:38:43;;;;;;;7.57;3.97;;;;;;;-141.28;100.00;49368.59;5131793;28;20266;-77
2022/10/27 02:41:10;;;;;;;9.57;4.63;;;;;;;-141.28;100.00;49376.44;5132929;28;20258;-79
2022/10/27 02:43:37;;;;;;;9.20;3.77;;;;;;;-141.28;100.00;49376.44;5132419;28;20209;-77
2022/10/27 02:46:04;;;;;;;9.27;3.70;;;;;;;-141.28;100.00;49366.63;5132467;28;20198;-80
2022/10/27 02:48:30;;;;;;;10.23;4.23;;;;;;;-141.28;100.00;49372.50;5132741;28;20274;-77
2022/10/27 02:50:59;;;;;;;12.17;3.87;;;;;;;-141.28;100.00;49368.59;5136600;28;20205;-74
2022/10/27 02:53:26;;;;;;;5.57;3.77;;;;;;;-141.28;100.00;49368.59;5134653;28;20254;-78
2022/10/27 02:55:53;;;;;;;12.53;4.30;;;;;;;-141.28;100.00;49366.63;5132727;28;20212;-76
2022/10/27 02:58:19;;;;;;;13.40;4.30;;;;;;;-141.28;100.00;49352.88;5132368;28;20275;-76
2022/10/27 03:00:47;;;;;;;10.83;4.53;;;;;;;-141.28;100.00;49392.13;5132413;28;20258;-78
2022/10/27 03:03:14;;;;;;;14.80;6.23;;;;;;;-141.28;100.00;49366.63;5131951;27;20214;-76
2022/10/27 03:05:41;;;;;;;9.63;5.37;;;;;;;-141.28;100.00;49337.19;5132281;28;20195;-77
2022/10/27 03:08:09;;;;;;;14.30;5.80;;;;;;;-141.28;100.00;49333.25;5131929;28;20199;-76
2022/10/27 03:10:36;;;;;;;13.93;6.27;;;;;;;-141.28;100.00;49319.53;5134940;28;20294;-76
2022/10/27 03:13:03;;;;;;;17.00;7.00;;;;;;;-141.28;100.00;49313.66;5131842;28;20230;-76
2022/10/27 03:15:30;;;;;;;14.97;6.50;;;;;;;-141.28;100.00;49301.88;5131686;28;20214;-77
2022/10/27 03:17:56;;;;;;;20.67;6.97;;;;;;;-141.28;100.00;49315.59;5131930;28;20198;-77
2022/10/27 03:20:23;;;;;;;15.43;6.43;;;;;;;-141.28;100.00;49276.38;5132025;28;20213;-78
2022/10/27 03:22:50;;;;;;;19.87;6.73;;;;;;;-141.28;100.00;49268.50;5132286;28;20263;-79
2022/10/27 03:25:19;;;;;;;17.80;6.87;;;;;;;-141.28;100.00;49262.63;5132290;28;20198;-79
2022/10/27 03:27:46;;;;;;;16.50;7.80;;;;;;;-141.28;100.00;49321.50;5132046;28;20195;-76
2022/10/27 03:30:16;;;;;;;18.07;8.50;;;;;;;-141.28;100.00;49305.78;5131657;28;20241;-77
2022/10/27 03:32:45;;;;;;;19.37;7.97;;;;;;;-141.28;100.00;49325.41;5118859;28;20202;-80
2022/10/27 03:35:12;;;;;;;17.63;9.60;;;;;;;-141.28;100.00;49286.16;5118592;28;20289;-76
2022/10/27 03:37:39;;;;;;;19.07;8.93;;;;;;;-141.28;100.00;49305.78;5131723;28;20259;-77
2022/10/27 03:40:08;;;;;;;20.10;7.77;;;;;;;-141.28;100.00;49278.31;5132427;28;20258;-76
2022/10/27 03:42:40;;;;;;;13.67;6.83;;;;;;;-141.28;100.00;49294.03;5132480;28;20211;-79
2022/10/27 03:45:09;;;;;;;16.57;7.40;;;;;;;-141.28;100.00;49260.66;5131965;28;20226;-78
2022/10/27 03:47:36;;;;;;;17.47;8.10;;;;;;;-141.28;100.00;49258.69;5131925;28;20206;-77
2022/10/27 03:50:03;;;;;;;16.73;8.30;;;;;;;-141.28;100.00;49237.13;5135000;27;20222;-77
2022/10/27 03:52:29;;;;;;;15.67;8.50;;;;;;;-141.28;100.00;49223.38;5135640;27;20755;-77
2022/10/27 03:54:57;;;;;;;16.07;8.87;;;;;;;-141.28;100.00;49231.22;5135203;27;20201;-76
2022/10/27 03:57:24;;;;;;;20.17;8.53;;;;;;;-141.28;100.00;49203.75;5135278;27;20206;-79
2022/10/27 03:59:52;;;;;;;16.33;7.77;;;;;;;-141.28;100.00;49233.19;5134928;27;20234;-78
2022/10/27 04:02:19;;;;;;;16.60;6.33;;;;;;;-141.28;100.00;49215.53;5121634;27;20198;-77
2022/10/27 04:04:46;;;;;;;11.83;5.97;;;;;;;-141.28;100.00;49199.84;5135063;27;20214;-79
2022/10/27 04:07:13;;;;;;;16.77;6.43;;;;;;;-141.28;100.00;49184.13;5135523;27;20680;-80
2022/10/27 04:09:40;;;;;;;17.60;6.87;;;;;;;-141.28;100.00;49195.91;5134883;27;20230;-79
2022/10/27 04:12:07;;;;;;;12.77;6.17;;;;;;;-141.28;100.00;49184.13;5134792;27;20225;-75
2022/10/27 04:14:34;;;;;;;17.80;6.80;;;;;;;-141.28;100.00;49180.22;5134864;27;20202;-76
2022/10/27 04:17:03;;;;;;;17.63;6.37;;;;;;;-141.28;100.00;49168.44;5134814;27;20199;-77
2022/10/27 04:19:30;;;;;;;14.23;4.97;;;;;;;-141.28;100.00;49168.44;5134897;27;20286;-76
2022/10/27 04:21:58;;;;;;;11.33;5.20;;;;;;;-141.28;100.00;49160.59;5134612;27;20673;-79
2022/10/27 04:24:25;;;;;;;20.83;5.60;;;;;;;-141.28;100.00;49148.81;5134859;27;20206;-79
2022/10/27 04:26:52;;;;;;;33.10;6.17;;;;;;;-141.28;100.00;49142.94;5135536;27;20198;-79
2022/10/27 04:29:20;;;;;;;18.00;6.23;;;;;;;-141.28;100.00;49148.81;5137519;27;20233;-76
2022/10/27 04:31:46;;;;;;;20.60;6.33;;;;;;;-141.28;100.00;49117.44;5134765;27;20206;-76
2022/10/27 04:34:15;;;;;;;11.17;5.40;;;;;;;-141.28;100.00;49152.75;5122827;27;20214;-76
2022/10/27 04:36:41;;;;;;;16.40;6.10;;;;;;;-141.28;100.00;49152.75;5134005;27;20263;-76
2022/10/27 04:39:12;;;;;;;24.80;7.50;;;;;;;-141.28;100.00;49140.97;5121233;27;20260;-77
2022/10/27 04:41:40;;;;;;;13.73;6.30;;;;;;;-141.28;100.00;49164.53;5121515;27;20202;-78
2022/10/27 04:44:07;;;;;;;12.70;6.10;;;;;;;-141.28;100.00;49154.72;5134711;27;20262;-80
2022/10/27 04:46:34;;;;;;;18.73;6.40;;;;;;;-141.28;100.00;49154.72;5134884;27;20201;-76
2022/10/27 04:49:02;;;;;;;19.03;7.47;;;;;;;-141.28;100.00;49150.78;5134118;27;20558;-76
2022/10/27 04:51:31;;;;;;;18.53;6.47;;;;;;;-141.28;100.00;49184.13;5134446;27;20657;-75
2022/10/27 04:53:59;;;;;;;41.37;7.10;;;;;;;-141.28;100.00;49152.75;5133864;27;20209;-78
2022/10/27 04:56:27;;;;;;;29.30;6.87;;;;;;;-141.28;100.00;49184.13;5134463;27;20267;-77
2022/10/27 04:58:54;;;;;;;19.30;6.27;;;;;;;-141.28;100.00;49188.06;5133707;27;20202;-76
2022/10/27 05:01:22;;;;;;;27.37;8.23;;;;;;;-141.28;100.00;49184.13;5132946;27;20190;-76
2022/10/27 05:03:49;;;;;;;33.23;7.50;;;;;;;-141.28;100.00;49184.13;5133506;27;20229;-77
2022/10/27 05:06:16;;;;;;;24.60;6.77;;;;;;;-141.28;100.00;49203.75;5134328;27;20198;-80
2022/10/27 05:08:45;;;;;;;28.23;7.57;;;;;;;-141.28;100.00;49195.91;5133685;27;20208;-75
2022/10/27 05:11:12;;;;;;;24.73;7.30;;;;;;;-141.28;100.00;49176.28;5133803;27;20689;-78
2022/10/27 05:13:39;;;;;;;27.63;7.67;;;;;;;-141.28;100.00;49192.00;5133369;27;20760;-79
2022/10/27 05:16:06;;;;;;;31.53;7.77;;;;;;;-141.28;100.00;49190.03;5133705;27;20213;-76
2022/10/27 05:18:33;;;;;;;17.30;6.53;;;;;;;-141.28;100.00;49172.38;5133698;27;20251;-79
2022/10/27 05:21:01;;;;;;;29.33;7.73;;;;;;;-141.28;100.00;49172.38;5133703;27;20650;-80
2022/10/27 05:23:28;;;;;;;21.97;6.90;;;;;;;-141.28;100.00;49188.06;5133432;27;20203;-76
2022/10/27 05:25:56;;;;;;;22.03;8.20;;;;;;;-141.28;100.00;49215.53;5134137;27;20549;-78
2022/10/27 05:28:23;;;;;;;25.30;9.90;;;;;;;-141.28;100.00;49227.31;5133738;27;20209;-78
2022/10/27 05:30:50;;;;;;;34.30;13.10;;;;;;;-141.28;100.00;49250.84;5133214;27;20225;-76
2022/10/27 05:33:17;;;;;;;66.70;28.03;;;;;;;-141.28;100.00;49243.00;5129482;27;20195;-76
2022/10/27 05:35:44;;;;;;;44.60;18.80;;;;;;;-141.28;100.00;49239.09;5124462;27;20198;-80
2022/10/27 05:38:11;;;;;;;41.80;17.63;;;;;;;-141.28;100.00;49270.47;5133620;27;20701;-76
2022/10/27 05:40:38;;;;;;;53.80;25.03;;;;;;;-141.28;100.00;49309.72;5133378;27;20237;-80
2022/10/27 05:43:07;;;;;;;63.13;22.87;;;;;;;-141.28;100.00;49315.59;5133551;27;20641;-76
2022/10/27 05:45:34;;;;;;;54.37;21.20;;;;;;;-141.28;100.00;49315.59;5135428;27;20206;-77
2022/10/27 05:48:02;;;;;;;49.83;18.87;;;;;;;-141.28;100.00;49309.72;5133138;27;20289;-77
2022/10/27 05:50:30;;;;;;;56.23;18.60;;;;;;;-141.28;100.00;49301.88;5133282;27;20637;-80
2022/10/27 05:52:57;;;;;;;38.40;19.23;;;;;;;-141.28;100.00;49294.03;5133002;27;20606;-76
2022/10/27 05:55:24;;;;;;;26.10;10.77;;;;;;;-141.28;100.00;49313.66;5133484;27;20279;-75
2022/10/27 05:57:54;;;;;;;30.13;12.23;;;;;;;-141.28;100.00;49309.72;5132868;27;20280;-80
2022/10/27 06:00:25;;;;;;;43.73;13.30;;;;;;;-141.28;100.00;49345.03;5133133;27;20210;-78
2022/10/27 06:02:52;;;;;;;37.70;14.17;;;;;;;-141.28;100.00;49415.69;5132466;27;20210;-77
2022/10/27 06:05:19;;;;;;;50.50;17.00;;;;;;;-141.28;100.00;49445.13;5132929;27;20300;-76
2022/10/27 06:07:46;;;;;;;35.87;15.83;;;;;;;-141.28;100.00;49447.06;5120222;27;20305;-75
2022/10/27 06:10:13;;;;;;;32.07;13.13;;;;;;;-141.28;100.00;49431.38;5136697;27;20576;-76
2022/10/27 06:12:39;;;;;;;52.10;14.43;;;;;;;-141.28;100.00;49396.06;5133611;27;20237;-76
2022/10/27 06:15:08;;;;;;;52.27;13.73;;;;;;;-141.28;100.00;49431.38;5132081;27;20202;-79
2022/10/27 06:17:37;;;;;;;49.43;13.10;;;;;;;-141.28;100.00;49466.69;5132623;27;20221;-77
2022/10/27 06:20:05;;;;;;;47.50;14.43;;;;;;;-141.28;100.00;49502.03;5132830;27;20590;-76
2022/10/27 06:22:32;;;;;;;41.70;12.90;;;;;;;-141.28;100.00;49602.09;5132534;27;20198;-77
2022/10/27 06:24:59;;;;;;;57.33;13.63;;;;;;;-141.28;100.00;49702.19;5132718;27;20259;-78
2022/10/27 06:27:26;;;;;;;50.37;13.83;;;;;;;-141.28;100.00;49757.13;5132382;27;20209;-76
2022/10/27 06:29:53;;;;;;;46.73;12.53;;;;;;;-141.28;100.00;49784.59;5147523;27;20226;-76
2022/10/27 06:32:19;;;;;;;51.30;11.77;;;;;;;-141.28;100.00;49772.81;5154709;27;20206;-75
2022/10/27 06:34:48;;;;;;;34.03;11.27;;;;;;;-141.28;100.00;49780.69;5150967;27;20198;-76
2022/10/27 06:37:15;;;;;;;41.07;10.97;;;;;;;-141.28;100.00;49821.88;5132889;27;20689;-77
2022/10/27 06:39:42;;;;;;;29.47;9.70;;;;;;;-141.28;100.00;49839.56;5132916;28;20641;-78
2022/10/27 06:42:08;;;;;;;21.00;8.37;;;;;;;-141.28;100.00;50098.63;5132378;28;20212;-79
2022/10/27 06:44:35;;;;;;;29.43;7.53;;;;;;;-141.28;100.00;50506.88;5132234;28;20198;-76
2022/10/27 06:47:02;;;;;;;19.07;7.30;;;;;;;-141.28;100.00;50497.06;5131996;28;20542;-79
2022/10/27 06:49:29;;;;;;;23.10;7.60;;;;;;;-141.28;100.00;50463.69;5132467;28;20609;-76
2022/10/27 06:51:59;;;;;;;15.80;6.73;;;;;;;-141.28;100.00;50387.13;5131896;28;20222;-79
2022/10/27 06:54:26;;;;;;;23.80;6.90;;;;;;;-141.28;100.00;50314.50;5131883;28;20205;-76
2022/10/27 06:56:53;;;;;;;16.20;8.33;;;;;;;-141.28;100.00;50318.44;5131807;28;20669;-79
2022/10/27 06:59:20;;;;;;;14.97;6.50;;;;;;;-141.28;100.00;50236.00;5132208;28;20209;-75
2022/10/27 07:01:47;;;;;;;19.57;6.23;;;;;;;-141.28;100.00;50153.56;5132399;28;20680;-80
2022/10/27 07:04:14;;;;;;;17.70;6.63;;;;;;;-141.28;100.00;50118.25;5135718;27;20232;-75
2022/10/27 07:06:42;;;;;;;13.57;6.70;;;;;;;-141.28;100.00;50141.78;5119484;28;20209;-78
2022/10/27 07:09:11;;;;;;;13.17;6.47;;;;;;;-141.28;100.00;50194.78;5132011;28;20520;-78
2022/10/27 07:11:38;;;;;;;18.33;5.90;;;;;;;-141.28;100.00;50183.00;5131977;28;20226;-78
2022/10/27 07:14:05;;;;;;;9.30;5.80;;;;;;;-141.28;100.00;50239.94;5131862;28;20238;-78
2022/10/27 07:16:32;;;;;;;18.03;6.07;;;;;;;-141.28;100.00;50508.81;5132040;28;20622;-76
2022/10/27 07:19:00;;;;;;;17.63;5.77;;;;;;;-141.28;100.00;50161.41;5131886;28;20669;-76
2022/10/27 07:21:27;;;;;;;14.57;5.40;;;;;;;-141.28;100.00;50071.13;5132121;28;20618;-76
2022/10/27 07:23:54;;;;;;;12.23;5.43;;;;;;;-141.28;100.00;50118.25;5133590;27;20196;-78
2022/10/27 07:26:22;;;;;;;17.87;6.43;;;;;;;-141.28;100.00;50047.59;5136235;27;20679;-76
2022/10/27 07:28:49;;;;;;;17.13;6.30;;;;;;;-141.28;100.00;49937.69;5135925;27;20195;-76
2022/10/27 07:31:16;;;;;;;20.10;6.20;;;;;;;-141.28;100.00;49886.66;5135680;27;20275;-76
2022/10/27 07:33:43;;;;;;;19.13;6.37;;;;;;;-141.28;100.00;49764.97;5128296;27;20198;-76
2022/10/27 07:36:10;;;;;;;14.87;6.00;;;;;;;-141.28;100.00;49806.19;5130657;27;20570;-76
2022/10/27 07:38:37;;;;;;;27.43;7.57;;;;;;;-141.28;100.00;49953.38;5135520;27;20233;-80
2022/10/27 07:41:05;;;;;;;20.13;7.67;;;;;;;-141.28;100.00;49607.97;5135545;27;20272;-76
2022/10/27 07:43:34;;;;;;;18.97;9.00;;;;;;;-141.28;100.00;49502.03;5135810;27;20198;-77
2022/10/27 07:46:01;;;;;;;19.13;9.23;;;;;;;-141.28;100.00;49462.78;5135218;27;20199;-79
2022/10/27 07:48:28;;;;;;;23.30;9.90;;;;;;;-141.28;100.00;49458.84;5135787;27;20198;-80
2022/10/27 07:50:55;;;;;;;31.70;10.63;;;;;;;-141.28;100.00;49392.13;5135316;27;20222;-80
2022/10/27 07:53:22;;;;;;;28.47;10.27;;;;;;;-141.28;100.00;49470.63;5135350;27;20669;-77
2022/10/27 07:55:51;;;;;;;18.47;10.13;;;;;;;-141.28;100.00;49623.69;5135563;27;20206;-80
2022/10/27 07:58:18;;;;;;;16.83;9.97;;;;;;;-141.28;100.00;49817.97;5135881;27;20210;-77
2022/10/27 08:00:48;;;;;;;32.33;12.23;;;;;;;-141.28;100.00;49770.88;5135013;27;20676;-75
2022/10/27 08:03:17;;;;;;;33.27;10.93;;;;;;;-141.28;100.00;49721.81;5135177;27;20233;-77
2022/10/27 08:05:44;;;;;;;23.87;10.73;;;;;;;-141.28;100.00;49564.81;5135128;27;20202;-78
2022/10/27 08:08:13;;;;;;;25.27;9.93;;;;;;;-141.28;100.00;49439.22;5134720;27;20259;-76
2022/10/27 08:10:41;;;;;;;26.17;11.33;;;;;;;-141.28;100.00;49341.13;5134743;27;20279;-78
2022/10/27 08:13:09;;;;;;;29.27;10.93;;;;;;;-141.28;100.00;49307.75;5134728;27;20234;-75
2022/10/27 08:15:38;;;;;;;22.90;10.77;;;;;;;-141.28;100.00;49250.84;5136349;27;20541;-81
2022/10/27 08:18:07;;;;;;;30.73;12.27;;;;;;;-141.28;100.00;49221.41;5135697;27;20220;-79
2022/10/27 08:20:37;;;;;;;22.53;10.23;;;;;;;-141.28;100.00;49254.78;5135525;27;20198;-78
2022/10/27 08:23:08;;;;;;;21.97;10.80;;;;;;;-141.28;100.00;49164.53;5136872;27;20194;-75
2022/10/27 08:25:35;;;;;;;18.17;10.77;;;;;;;-141.28;100.00;49180.22;5135154;27;20228;-79
2022/10/27 08:28:02;;;;;;;23.10;10.50;;;;;;;-141.28;100.00;49223.38;5134237;27;20609;-77
2022/10/27 08:30:31;;;;;;;19.93;10.60;;;;;;;-141.28;100.00;49250.84;5134377;27;20221;-74
2022/10/27 08:33:00;;;;;;;23.37;10.90;;;;;;;-141.28;100.00;49052.69;5132977;27;20653;-76
2022/10/27 08:35:30;;;;;;;22.90;11.03;;;;;;;-141.28;100.00;49223.38;5122376;27;20198;-76
2022/10/27 08:38:00;;;;;;;19.00;10.57;;;;;;;-141.28;100.00;49199.84;5134466;27;20205;-77
2022/10/27 08:40:34;;;;;;;27.27;11.03;;;;;;;-141.28;100.00;49168.44;5134439;27;20198;-77
2022/10/27 08:43:15;;;;;;;14.43;9.27;;;;;;;-141.28;100.00;49241.03;5134065;27;20198;-77
2022/10/27 08:45:51;;;;;;;17.53;10.17;;;;;;;-141.28;100.00;49182.19;5134747;27;20289;-77
2022/10/27 08:48:23;;;;;;;19.97;9.60;;;;;;;-141.28;100.00;49172.38;5134699;27;20193;-77
2022/10/27 08:50:52;;;;;;;19.43;9.43;;;;;;;-141.28;100.00;49188.06;5133945;27;20230;-76
2022/10/27 08:53:25;;;;;;;21.87;9.13;;;;;;;-141.28;100.00;49184.13;5134430;27;20202;-77
2022/10/27 08:55:56;;;;;;;16.33;7.93;;;;;;;-141.28;100.00;49172.38;5133620;27;20282;-76
2022/10/27 08:58:32;;;;;;;14.13;8.40;;;;;;;-141.28;100.00;49215.53;5134242;27;20202;-77
2022/10/27 09:01:03;;;;;;;17.77;8.67;;;;;;;-141.28;100.00;49233.19;5134128;27;20205;-75
2022/10/27 09:03:44;;;;;;;16.90;7.97;;;;;;;-141.28;100.00;49639.38;5133934;27;20218;-76
2022/10/27 09:06:18;;;;;;;19.13;8.87;;;;;;;-141.28;100.00;49195.91;5134009;27;20214;-76
2022/10/27 09:08:54;;;;;;;15.40;8.70;;;;;;;-141.28;100.00;49823.84;5134047;27;20190;-79
2022/10/27 09:11:30;;;;;;;22.87;9.50;;;;;;;-141.28;100.00;49184.13;5134489;27;20222;-79
2022/10/27 09:14:26;;;;;;;25.37;9.83;;;;;;;-141.28;100.00;49231.22;5133730;27;20658;-79
2022/10/27 09:17:08;;;;;;;16.20;7.97;;;;;;;-141.28;100.00;49195.91;5132354;27;20198;-76
2022/10/27 09:19:41;;;;;;;15.10;7.63;;;;;;;-141.28;100.00;49180.22;5135181;27;20213;-77
2022/10/27 09:22:15;;;;;;;19.67;8.73;;;;;;;-141.28;100.00;49156.66;5123554;27;20194;-76
2022/10/27 09:24:42;;;;;;;19.70;8.33;;;;;;;-141.28;100.00;49097.81;5136817;27;20225;-77
2022/10/27 09:27:13;;;;;;;17.67;7.70;;;;;;;-141.28;100.00;49093.88;5121571;27;20695;-76
2022/10/27 09:29:41;;;;;;;15.50;7.40;;;;;;;-141.28;100.00;49192.00;5134258;27;20577;-77
2022/10/27 09:32:17;;;;;;;18.77;7.80;;;;;;;-141.28;100.00;49186.09;5133407;27;20793;-77
2022/10/27 09:34:49;;;;;;;17.80;7.67;;;;;;;-141.28;98.54;49164.53;5126513;27;20198;-78
2022/10/27 09:37:20;;;;;;;18.67;7.77;;;;;;;-141.28;98.86;49166.47;5133404;27;20209;-75
2022/10/27 09:39:50;;;;;;;14.67;6.70;;;;;;;-141.28;98.07;49162.56;5134999;27;20850;-74
2022/10/27 09:42:18;;;;;;;13.83;6.80;;;;;;;-141.28;96.37;49195.91;5133307;27;20255;-78
2022/10/27 09:44:49;;;;;;;11.47;6.83;;;;;;;-141.28;96.37;49193.94;5133019;27;20202;-76
2022/10/27 09:47:16;;;;;;;13.93;6.77;;;;;;;-141.28;86.93;49123.31;5133377;27;20198;-77
2022/10/27 09:49:47;;;;;;;11.20;6.67;;;;;;;-141.28;77.86;49084.06;5133030;27;20654;-75
2022/10/27 09:52:17;;;;;;;17.17;7.17;;;;;;;-141.28;77.57;49099.78;5133311;27;20626;-76
2022/10/27 09:54:53;;;;;;;10.30;5.20;;;;;;;-141.28;74.05;49101.72;5132517;27;20201;-77
2022/10/27 09:57:24;;;;;;;10.03;5.83;;;;;;;-141.28;69.61;49042.88;5132754;27;20200;-79
2022/10/27 09:59:54;;;;;;;10.27;6.00;;;;;;;-141.28;70.84;49052.69;5133223;27;20201;-79
2022/10/27 10:02:26;;;;;;;15.50;5.67;;;;;;;-141.28;67.01;49062.50;5132951;27;20198;-76
2022/10/27 10:04:54;;;;;;;7.10;4.13;;;;;;;-141.28;65.41;49058.56;5132675;27;20217;-76
2022/10/27 10:07:34;;;;;;;8.43;5.10;;;;;;;-141.28;67.80;49074.25;5133324;27;20192;-76
2022/10/27 10:10:05;;;;;;;6.63;4.40;;;;;;;-141.28;66.91;49070.34;5132451;27;20742;-76
2022/10/27 10:12:32;;;;;;;7.30;4.60;;;;;;;-141.28;66.17;49058.56;5132727;27;20764;-77
2022/10/27 10:15:18;;;;;;;9.60;4.67;;;;;;;-141.28;65.57;49042.88;5132573;27;20207;-80
2022/10/27 10:17:58;;;;;;;10.47;4.93;;;;;;;-141.28;63.07;49038.94;5132361;27;20204;-77
2022/10/27 10:20:36;;;;;;;10.67;4.77;;;;;;;-141.28;63.25;49052.69;5132959;27;20232;-79
2022/10/27 10:23:09;;;;;;;15.87;5.20;;;;;;;-141.28;59.80;48940.84;5132635;27;20202;-78
2022/10/27 10:25:46;;;;;;;8.70;4.53;;;;;;;-141.28;59.24;48972.25;5132489;27;20198;-78
2022/10/27 10:28:21;;;;;;;15.83;5.23;;;;;;;-141.28;58.59;48970.28;5132610;27;20198;-76
2022/10/27 10:30:51;;;;;;;11.90;4.27;;;;;;;-141.28;55.38;48960.47;5132278;27;20206;-76
2022/10/27 10:33:19;;;;;;;14.10;4.33;;;;;;;-141.28;55.46;48948.69;5126138;27;20205;-76
2022/10/27 10:35:47;;;;;;;10.23;4.87;;;;;;;-141.28;55.53;48966.34;5132202;27;20726;-78
2022/10/27 10:38:26;;;;;;;8.87;4.47;;;;;;;-141.28;57.25;48993.81;5132471;28;20198;-77
2022/10/27 10:41:01;;;;;;;12.83;4.53;;;;;;;-141.28;56.85;49003.63;5132514;28;20194;-77
2022/10/27 10:43:28;;;;;;;9.50;4.70;;;;;;;-141.28;57.80;48972.25;5132702;28;20724;-76
2022/10/27 10:45:56;;;;;;;10.70;4.00;;;;;;;-141.28;56.13;48991.84;5132048;28;20272;-75
2022/10/27 10:48:29;;;;;;;11.33;3.80;;;;;;;-141.28;54.58;48956.53;5132215;28;20198;-76
2022/10/27 10:50:58;;;;;;;5.17;3.40;;;;;;;-141.28;51.75;48956.53;5132117;28;20198;-76
2022/10/27 10:53:28;;;;;;;10.77;3.50;;;;;;;-141.28;50.89;48948.69;5132419;28;20198;-78
2022/10/27 10:56:00;;;;;;;12.13;3.07;;;;;;;-141.28;49.63;48882.00;5132546;28;20297;-79
2022/10/27 10:58:29;;;;;;;4.50;2.40;;;;;;;-141.28;47.10;48933.00;5135905;27;20556;-77
2022/10/27 11:00:58;;;;;;;6.67;2.70;;;;;;;-141.28;47.77;48901.59;5136677;27;20198;-77
2022/10/27 11:03:30;;;;;;;7.67;2.90;;;;;;;-141.28;47.05;48905.53;5136319;27;20316;-76
2022/10/27 11:06:00;;;;;;;11.97;3.03;;;;;;;-141.28;46.02;48778.00;5118543;27;20602;-75
2022/10/27 11:08:36;;;;;;;6.40;2.43;;;;;;;-141.28;47.65;48933.00;5136782;27;20203;-79
2022/10/27 11:11:10;;;;;;;3.23;2.33;;;;;;;-141.28;46.48;48944.78;5136446;27;20255;-79
2022/10/27 11:13:42;;;;;;;9.07;2.67;;;;;;;-141.28;47.29;48940.84;5136682;27;20590;-78